createdAt,value
2018-05-26T00:02:08.432Z,66.50
2018-05-26T00:04:34.987Z,66.40
2018-05-26T00:07:01.474Z,66.50
2018-05-26T00:09:28.547Z,66.60
2018-05-26T00:11:55.701Z,66.60
2018-05-26T00:14:22.009Z,66.50
2018-05-26T00:16:49.085Z,66.60
2018-05-26T00:19:15.412Z,66.50
2018-05-26T00:21:41.966Z,66.50
2018-05-26T00:24:08.869Z,66.50
2018-05-26T00:26:35.743Z,66.60
2018-05-26T00:29:02.102Z,66.60
2018-05-26T00:31:28.456Z,66.60
2018-05-26T00:33:55.662Z,66.70
2018-05-26T00:36:22.025Z,66.60
2018-05-26T00:38:48.365Z,66.60
2018-05-26T00:41:15.417Z,66.70
2018-05-26T00:43:41.810Z,66.70
2018-05-26T00:46:09.032Z,66.70
2018-05-26T00:48:35.458Z,66.80
2018-05-26T00:51:02.523Z,66.80
2018-05-26T00:53:29.553Z,66.90
2018-05-26T00:55:56.104Z,66.80
2018-05-26T00:58:22.414Z,67.60
2018-05-26T01:00:49.453Z,66.90
2018-05-26T01:03:15.757Z,66.80
2018-05-26T01:05:42.095Z,66.80
2018-05-26T01:08:08.455Z,66.80
2018-05-26T01:10:34.714Z,66.90
2018-05-26T01:13:00.972Z,66.90
2018-05-26T01:15:28.003Z,67.00
2018-05-26T01:17:55.045Z,67.00
2018-05-26T01:20:22.134Z,67.10
2018-05-26T01:22:49.422Z,66.90
2018-05-26T01:25:15.762Z,67.00
2018-05-26T01:27:42.965Z,67.10
2018-05-26T01:30:09.286Z,67.00
2018-05-26T01:32:35.735Z,67.00
2018-05-26T01:35:02.042Z,67.00
2018-05-26T01:37:29.119Z,67.10
2018-05-26T01:39:55.548Z,67.00
2018-05-26T01:42:21.928Z,67.00
2018-05-26T01:44:48.276Z,67.10
2018-05-26T01:47:14.680Z,67.10
2018-05-26T01:49:41.078Z,67.10
2018-05-26T01:52:08.414Z,67.90
2018-05-26T01:54:35.442Z,67.90
2018-05-26T01:57:02.618Z,67.30
2018-05-26T01:59:28.972Z,67.20
2018-05-26T02:01:55.532Z,67.20
2018-05-26T02:04:21.866Z,67.20
2018-05-26T02:06:48.378Z,67.20
2018-05-26T02:09:14.698Z,67.20
2018-05-26T02:11:41.154Z,67.20
2018-05-26T02:14:07.615Z,67.20
2018-05-26T02:16:34.122Z,67.30
2018-05-26T02:19:01.250Z,67.30
2018-05-26T02:21:27.819Z,67.20
2018-05-26T02:23:54.213Z,67.30
2018-05-26T02:26:21.433Z,67.30
2018-05-26T02:28:47.770Z,67.30
2018-05-26T02:31:14.348Z,67.30
2018-05-26T02:33:40.729Z,67.30
2018-05-26T02:36:07.011Z,67.40
2018-05-26T02:38:34.093Z,67.40
2018-05-26T02:41:00.461Z,67.30
2018-05-26T02:43:26.907Z,67.30
2018-05-26T02:45:53.329Z,67.30
2018-05-26T02:48:19.819Z,67.40
2018-05-26T02:50:46.255Z,67.30
2018-05-26T02:53:12.611Z,67.40
2018-05-26T02:55:38.969Z,67.40
2018-05-26T02:58:05.665Z,67.50
2018-05-26T03:00:31.999Z,67.50
2018-05-26T03:02:58.319Z,67.40
2018-05-26T03:05:30.727Z,67.50
2018-05-26T03:08:03.837Z,67.50
2018-05-26T03:10:36.970Z,67.60
2018-05-26T03:13:10.297Z,67.60
2018-05-26T03:15:36.815Z,67.40
2018-05-26T03:18:11.861Z,67.50
2018-05-26T03:20:38.214Z,67.60
2018-05-26T03:23:04.603Z,67.50
2018-05-26T03:25:30.936Z,67.50
2018-05-26T03:27:58.285Z,67.60
2018-05-26T03:30:25.401Z,67.60
2018-05-26T03:32:52.614Z,67.60
2018-05-26T03:35:19.742Z,67.70
2018-05-26T03:37:46.912Z,67.70
2018-05-26T03:40:13.247Z,67.50
2018-05-26T03:42:39.690Z,67.60
2018-05-26T03:45:06.124Z,67.60
2018-05-26T03:47:32.618Z,67.60
2018-05-26T03:49:59.653Z,67.60
2018-05-26T03:52:27.065Z,67.10
2018-05-26T03:54:53.500Z,67.70
2018-05-26T03:57:19.870Z,67.60
2018-05-26T03:59:46.189Z,67.70
2018-05-26T04:02:12.591Z,67.70
2018-05-26T04:04:38.988Z,67.70
2018-05-26T04:07:06.742Z,67.80
2018-05-26T04:12:14.183Z,67.80
2018-05-26T04:14:40.509Z,67.70
2018-05-26T04:17:07.599Z,67.90
2018-05-26T04:19:34.133Z,67.80
2018-05-26T04:22:00.501Z,67.80
2018-05-26T04:24:26.969Z,67.80
2018-05-26T04:26:53.333Z,67.70
2018-05-26T04:29:20.587Z,67.90
2018-05-26T04:31:47.005Z,67.80
2018-05-26T04:34:13.399Z,67.90
2018-05-26T04:36:40.577Z,67.90
2018-05-26T04:39:07.048Z,67.90
2018-05-26T04:41:33.408Z,67.90
2018-05-26T04:44:00.678Z,68.00
2018-05-26T04:46:27.068Z,67.90
2018-05-26T04:48:53.470Z,68.00
2018-05-26T04:51:19.814Z,67.90
2018-05-26T04:53:46.911Z,68.10
2018-05-26T04:56:13.400Z,67.90
2018-05-26T04:58:39.871Z,67.80
2018-05-26T05:01:06.246Z,67.90
2018-05-26T05:03:33.338Z,68.00
2018-05-26T05:05:59.750Z,67.90
2018-05-26T05:08:26.946Z,68.00
2018-05-26T05:10:53.476Z,68.00
2018-05-26T05:13:19.940Z,68.00
2018-05-26T05:15:47.160Z,68.10
2018-05-26T05:18:14.209Z,68.00
2018-05-26T05:20:40.756Z,68.00
2018-05-26T05:23:07.173Z,68.00
2018-05-26T05:25:33.590Z,68.00
2018-05-26T05:27:59.949Z,68.10
2018-05-26T05:30:26.474Z,68.10
2018-05-26T05:32:52.883Z,68.10
2018-05-26T05:35:19.341Z,68.10
2018-05-26T05:37:45.789Z,68.00
2018-05-26T05:40:12.279Z,68.10
2018-05-26T05:42:39.452Z,68.20
2018-05-26T05:45:05.925Z,68.10
2018-05-26T05:47:32.345Z,68.20
2018-05-26T05:49:58.805Z,68.20
2018-05-26T05:52:25.477Z,67.80
2018-05-26T05:54:52.815Z,68.20
2018-05-26T05:57:19.257Z,68.20
2018-05-26T05:59:45.745Z,68.30
2018-05-26T06:02:12.252Z,68.20
2018-05-26T06:04:38.677Z,68.30
2018-05-26T06:07:05.187Z,68.30
2018-05-26T06:09:31.623Z,68.30
2018-05-26T06:11:57.998Z,68.30
2018-05-26T06:14:24.394Z,68.40
2018-05-26T06:16:51.645Z,68.50
2018-05-26T06:19:18.085Z,68.30
2018-05-26T06:21:44.569Z,68.40
2018-05-26T06:24:12.005Z,68.50
2018-05-26T06:26:38.460Z,68.40
2018-05-26T06:29:04.889Z,68.40
2018-05-26T06:31:31.299Z,68.50
2018-05-26T06:33:58.423Z,68.70
2018-05-26T06:36:24.861Z,68.50
2018-05-26T06:38:51.377Z,68.60
2018-05-26T06:41:17.796Z,68.60
2018-05-26T06:43:44.174Z,68.70
2018-05-26T06:46:12.037Z,68.70
2018-05-26T06:48:39.770Z,68.60
2018-05-26T06:51:06.153Z,68.80
2018-05-26T06:53:34.215Z,68.90
2018-05-26T06:56:00.603Z,68.80
2018-05-26T06:58:27.347Z,68.80
2018-05-26T07:00:53.805Z,68.80
2018-05-26T07:03:20.221Z,68.80
2018-05-26T07:05:47.349Z,68.80
2018-05-26T07:08:14.490Z,68.90
2018-05-26T07:10:41.578Z,68.90
2018-05-26T07:13:07.956Z,68.80
2018-05-26T07:15:35.130Z,68.90
2018-05-26T07:18:01.531Z,68.90
2018-05-26T07:20:27.898Z,68.80
2018-05-26T07:22:55.050Z,68.90
2018-05-26T07:25:21.302Z,68.90
2018-05-26T07:27:48.308Z,68.90
2018-05-26T07:30:14.785Z,68.90
2018-05-26T07:32:41.342Z,68.90
2018-05-26T07:35:07.602Z,68.90
2018-05-26T07:37:33.984Z,68.90
2018-05-26T07:40:00.364Z,68.90
2018-05-26T07:42:26.762Z,69.00
2018-05-26T07:44:53.148Z,69.00
2018-05-26T07:47:20.778Z,69.00
2018-05-26T07:49:48.955Z,69.10
2018-05-26T07:52:17.163Z,69.10
2018-05-26T07:54:43.583Z,69.30
2018-05-26T07:57:10.766Z,70.00
2018-05-26T07:59:37.109Z,69.60
2018-05-26T08:02:03.473Z,69.90
2018-05-26T08:04:29.882Z,70.10
2018-05-26T08:06:56.313Z,70.30
2018-05-26T08:09:22.709Z,70.50
2018-05-26T08:11:49.946Z,70.80
2018-05-26T08:14:16.357Z,70.80
2018-05-26T08:16:43.590Z,71.10
2018-05-26T08:19:10.742Z,71.30
2018-05-26T08:21:37.160Z,71.10
2018-05-26T08:24:04.243Z,71.50
2018-05-26T08:26:31.614Z,71.40
2018-05-26T08:28:58.007Z,71.50
2018-05-26T08:31:24.504Z,71.60
2018-05-26T08:33:51.353Z,71.80
2018-05-26T08:38:56.324Z,72.00
2018-05-26T08:41:23.499Z,72.20
2018-05-26T08:43:49.977Z,72.10
2018-05-26T08:46:17.181Z,72.20
2018-05-26T08:48:43.551Z,72.10
2018-05-26T08:51:10.199Z,72.10
2018-05-26T08:53:36.699Z,72.10
2018-05-26T08:56:03.577Z,72.10
2018-05-26T08:58:30.136Z,72.10
2018-05-26T09:00:57.357Z,72.20
2018-05-26T09:03:23.805Z,72.20
2018-05-26T09:05:51.025Z,72.20
2018-05-26T09:08:17.399Z,72.40
2018-05-26T09:10:43.887Z,72.20
2018-05-26T09:13:10.363Z,72.30
2018-05-26T09:15:37.747Z,72.40
2018-05-26T09:18:04.279Z,72.30
2018-05-26T09:20:30.724Z,72.20
2018-05-26T09:22:57.196Z,72.30
2018-05-26T09:25:23.785Z,72.20
2018-05-26T09:27:50.185Z,72.10
2018-05-26T09:30:17.410Z,72.00
2018-05-26T09:32:44.003Z,72.00
2018-05-26T09:35:11.304Z,71.80
2018-05-26T09:37:37.766Z,71.70
2018-05-26T09:40:04.229Z,71.70
2018-05-26T09:42:31.469Z,71.50
2018-05-26T09:44:58.630Z,71.40
2018-05-26T09:47:25.116Z,71.40
2018-05-26T09:49:51.518Z,71.20
2018-05-26T09:52:17.975Z,71.10
2018-05-26T09:54:44.396Z,71.00
2018-05-26T09:57:10.833Z,70.90
2018-05-26T09:59:38.143Z,70.80
2018-05-26T10:02:04.604Z,70.80
2018-05-26T10:04:30.996Z,71.10
2018-05-26T10:06:57.496Z,70.50
2018-05-26T10:09:24.053Z,70.30
2018-05-26T10:11:50.800Z,70.20
2018-05-26T10:14:17.308Z,70.10
2018-05-26T10:16:44.612Z,69.80
2018-05-26T10:19:11.944Z,69.60
2018-05-26T10:21:38.567Z,69.60
2018-05-26T10:24:05.792Z,69.40
2018-05-26T10:26:32.279Z,69.30
2018-05-26T10:28:59.467Z,69.10
2018-05-26T10:31:25.852Z,69.00
2018-05-26T10:33:52.293Z,69.40
2018-05-26T10:36:19.435Z,68.70
2018-05-26T10:38:45.900Z,68.60
2018-05-26T10:41:12.291Z,68.40
2018-05-26T10:43:38.649Z,68.20
2018-05-26T10:46:05.105Z,68.30
2018-05-26T10:48:31.692Z,68.80
2018-05-26T10:50:58.097Z,67.90
2018-05-26T10:53:39.415Z,67.70
2018-05-26T10:56:06.495Z,67.50
2018-05-26T10:58:33.581Z,67.20
2018-05-26T11:00:59.932Z,67.10
2018-05-26T11:03:26.407Z,67.00
2018-05-26T11:05:52.839Z,66.90
2018-05-26T11:08:19.274Z,66.70
2018-05-26T11:10:46.409Z,66.50
2018-05-26T11:13:12.743Z,66.40
2018-05-26T11:15:39.233Z,66.20
2018-05-26T11:18:05.592Z,66.00
2018-05-26T11:20:31.956Z,65.90
2018-05-26T11:22:59.160Z,65.60
2018-05-26T11:25:25.606Z,65.60
2018-05-26T11:27:51.910Z,65.30
2018-05-26T11:30:18.280Z,65.20
2018-05-26T11:32:44.688Z,64.80
2018-05-26T11:35:11.130Z,64.70
2018-05-26T11:37:37.476Z,64.40
2018-05-26T11:40:03.864Z,64.20
2018-05-26T11:42:30.998Z,63.90
2018-05-26T11:44:57.389Z,63.80
2018-05-26T11:47:23.762Z,63.80
2018-05-26T11:49:50.898Z,63.40
2018-05-26T11:52:17.210Z,63.30
2018-05-26T11:54:43.562Z,63.20
2018-05-26T11:57:10.060Z,63.10
2018-05-26T11:59:36.410Z,63.00
2018-05-26T12:02:02.816Z,62.90
2018-05-26T12:04:29.176Z,62.80
2018-05-26T12:06:55.705Z,62.60
2018-05-26T12:09:22.196Z,62.50
2018-05-26T12:11:48.648Z,62.30
2018-05-26T12:14:15.111Z,62.10
2018-05-26T12:16:41.599Z,62.00
2018-05-26T12:19:08.705Z,61.70
2018-05-26T12:21:35.347Z,61.70
2018-05-26T12:24:01.770Z,61.50
2018-05-26T12:26:28.166Z,61.40
2018-05-26T12:28:54.498Z,61.20
2018-05-26T12:31:21.607Z,61.00
2018-05-26T12:33:48.123Z,60.80
2018-05-26T12:36:14.612Z,60.80
2018-05-26T12:38:40.985Z,60.70
2018-05-26T12:41:07.372Z,61.30
2018-05-26T12:43:33.773Z,60.40
2018-05-26T12:46:00.146Z,60.20
2018-05-26T12:48:27.191Z,60.00
2018-05-26T12:50:53.571Z,60.00
2018-05-26T12:53:19.999Z,59.90
2018-05-26T12:55:46.302Z,59.80
2018-05-26T12:58:12.823Z,60.40
2018-05-26T13:00:39.290Z,59.60
2018-05-26T13:03:06.362Z,59.30
2018-05-26T13:05:32.651Z,59.30
2018-05-26T13:07:59.025Z,59.20
2018-05-26T13:10:25.322Z,59.00
2018-05-26T13:12:51.659Z,59.40
2018-05-26T13:15:18.705Z,58.70
2018-05-26T13:17:45.033Z,58.70
2018-05-26T13:20:11.433Z,58.70
2018-05-26T13:22:38.520Z,58.40
2018-05-26T13:25:05.006Z,58.30
2018-05-26T13:27:31.430Z,58.30
2018-05-26T13:29:58.492Z,58.10
2018-05-26T13:32:24.775Z,58.00
2018-05-26T13:34:51.040Z,58.00
2018-05-26T13:37:17.271Z,57.90
2018-05-26T13:39:43.561Z,57.80
2018-05-26T13:42:09.976Z,57.80
2018-05-26T13:44:36.360Z,57.70
2018-05-26T13:47:03.414Z,57.60
2018-05-26T13:49:30.486Z,57.50
2018-05-26T13:51:56.914Z,57.50
2018-05-26T13:54:23.257Z,57.50
2018-05-26T13:56:49.669Z,57.40
2018-05-26T13:59:15.984Z,57.40
2018-05-26T14:01:43.528Z,57.40
2018-05-26T14:04:09.879Z,57.30
2018-05-26T14:06:37.021Z,57.30
2018-05-26T14:09:04.199Z,57.20
2018-05-26T14:11:30.649Z,57.80
2018-05-26T14:13:56.983Z,57.20
2018-05-26T14:16:23.383Z,57.10
2018-05-26T14:18:49.817Z,57.10
2018-05-26T14:21:16.916Z,57.00
2018-05-26T14:23:43.389Z,56.90
2018-05-26T14:26:10.505Z,56.80
2018-05-26T14:28:36.908Z,57.00
2018-05-26T14:31:05.092Z,56.70
2018-05-26T14:33:31.823Z,56.60
2018-05-26T14:35:59.068Z,56.60
2018-05-26T14:38:25.973Z,56.50
2018-05-26T14:40:53.880Z,56.50
2018-05-26T14:43:20.434Z,56.50
2018-05-26T14:45:47.514Z,56.40
2018-05-26T14:48:13.890Z,56.30
2018-05-26T14:50:40.342Z,56.90
2018-05-26T14:53:07.542Z,56.30
2018-05-26T14:55:35.408Z,56.10
2018-05-26T14:58:02.212Z,56.10
2018-05-26T15:00:31.683Z,56.00
2018-05-26T15:03:00.768Z,56.00
2018-05-26T15:05:27.133Z,55.80
2018-05-26T15:07:54.221Z,55.90
2018-05-26T15:10:20.660Z,55.90
2018-05-26T15:12:47.149Z,55.80
2018-05-26T15:15:13.573Z,55.70
2018-05-26T15:17:40.200Z,55.80
2018-05-26T15:20:08.266Z,55.70
2018-05-26T15:22:35.375Z,55.60
2018-05-26T15:25:01.669Z,55.60
2018-05-26T15:27:28.082Z,55.50
2018-05-26T15:29:54.450Z,55.50
2018-05-26T15:32:20.877Z,55.40
2018-05-26T15:34:48.039Z,55.50
2018-05-26T15:37:14.449Z,55.40
2018-05-26T15:39:40.873Z,55.40
2018-05-26T15:42:07.191Z,55.40
2018-05-26T15:44:33.509Z,55.30
2018-05-26T15:46:59.889Z,55.30
2018-05-26T15:49:26.334Z,55.40
2018-05-26T15:51:52.699Z,55.30
2018-05-26T15:54:19.077Z,55.30
2018-05-26T15:56:46.266Z,55.30
2018-05-26T15:59:13.847Z,55.30
2018-05-26T16:01:40.924Z,55.30
2018-05-26T16:04:08.019Z,55.20
2018-05-26T16:06:34.376Z,55.10
2018-05-26T16:09:00.776Z,55.10
2018-05-26T16:11:27.247Z,55.10
2018-05-26T16:13:53.610Z,55.00
2018-05-26T16:16:19.922Z,55.00
2018-05-26T16:18:46.259Z,55.00
2018-05-26T16:21:12.562Z,54.90
2018-05-26T16:23:38.921Z,55.00
2018-05-26T16:26:05.362Z,54.80
2018-05-26T16:28:31.903Z,54.70
2018-05-26T16:30:58.202Z,54.70
2018-05-26T16:33:24.603Z,54.60
2018-05-26T16:35:51.087Z,54.60
2018-05-26T16:38:17.551Z,54.60
2018-05-26T16:40:43.939Z,54.70
2018-05-26T16:43:11.020Z,54.60
2018-05-26T16:45:37.464Z,55.10
2018-05-26T16:48:03.816Z,54.50
2018-05-26T16:50:30.218Z,54.30
2018-05-26T16:52:56.623Z,54.30
2018-05-26T16:55:23.038Z,54.20
2018-05-26T16:57:49.923Z,54.20
2018-05-26T17:00:16.327Z,54.20
2018-05-26T17:02:42.665Z,54.10
2018-05-26T17:05:08.994Z,54.10
2018-05-26T17:07:35.328Z,54.00
2018-05-26T17:10:02.448Z,54.00
2018-05-26T17:12:28.755Z,54.00
2018-05-26T17:14:55.964Z,53.90
2018-05-26T17:17:22.358Z,53.80
2018-05-26T17:19:48.750Z,54.40
2018-05-26T17:22:15.134Z,53.70
2018-05-26T17:24:41.537Z,53.70
2018-05-26T17:27:08.631Z,53.70
2018-05-26T17:29:35.425Z,53.70
2018-05-26T17:32:04.797Z,53.70
2018-05-26T17:34:31.715Z,53.60
2018-05-26T17:36:58.899Z,53.60
2018-05-26T17:39:25.283Z,53.70
2018-05-26T17:41:54.244Z,53.60
2018-05-26T17:44:22.889Z,53.50
2018-05-26T17:46:51.385Z,53.50
2018-05-26T17:49:19.769Z,53.50
2018-05-26T17:51:46.204Z,54.00
2018-05-26T17:54:13.526Z,53.50
2018-05-26T17:56:41.591Z,53.40
2018-05-26T18:04:32.129Z,53.40
2018-05-26T18:06:58.654Z,53.40
2018-05-26T18:09:26.464Z,53.50
2018-05-26T18:11:53.082Z,53.40
2018-05-26T18:14:19.519Z,53.40
2018-05-26T18:16:45.861Z,53.30
2018-05-26T18:19:12.171Z,53.40
2018-05-26T18:21:38.539Z,53.40
2018-05-26T18:24:05.073Z,53.40
2018-05-26T18:26:31.639Z,53.30
2018-05-26T18:29:00.433Z,53.30
2018-05-26T18:31:29.955Z,53.30
2018-05-26T18:33:59.360Z,53.20
2018-05-26T18:36:26.525Z,53.30
2018-05-26T18:38:53.679Z,53.30
2018-05-26T18:41:21.720Z,53.30
2018-05-26T18:43:48.289Z,53.30
2018-05-26T18:46:14.651Z,53.30
2018-05-26T18:48:41.186Z,53.30
2018-05-26T18:51:08.360Z,53.40
2018-05-26T18:53:35.960Z,53.40
2018-05-26T18:56:08.296Z,53.40
2018-05-26T18:58:36.190Z,54.10
2018-05-26T19:01:03.903Z,53.30
2018-05-26T19:03:35.064Z,54.10
2018-05-26T19:06:03.482Z,53.60
2018-05-26T19:08:31.178Z,53.60
2018-05-26T19:11:00.707Z,53.70
2018-05-26T19:13:29.088Z,53.70
2018-05-26T19:15:56.955Z,53.70
2018-05-26T19:18:26.590Z,53.80
2018-05-26T19:20:57.057Z,53.80
2018-05-26T19:23:26.432Z,53.80
2018-05-26T19:25:57.312Z,53.90
2018-05-26T19:28:26.922Z,53.90
2018-05-26T19:30:58.045Z,54.10
2018-05-26T19:33:26.637Z,54.00
2018-05-26T19:35:56.567Z,54.00
2018-05-26T19:38:25.589Z,54.10
2018-05-26T19:40:53.897Z,54.10
2018-05-26T19:43:21.406Z,54.10
2018-05-26T19:45:50.335Z,54.30
2018-05-26T19:48:16.711Z,54.20
2018-05-26T19:50:43.847Z,54.40
2018-05-26T19:53:10.252Z,54.30
2018-05-26T19:55:36.646Z,54.40
2018-05-26T19:58:02.968Z,54.50
2018-05-26T20:00:29.330Z,54.50
2018-05-26T20:02:56.419Z,54.70
2018-05-26T20:05:22.846Z,54.50
2018-05-26T20:07:49.370Z,54.50
2018-05-26T20:10:15.789Z,54.70
2018-05-26T20:12:42.180Z,54.70
2018-05-26T20:15:08.642Z,54.70
2018-05-26T20:17:35.916Z,54.80
2018-05-26T20:20:02.322Z,54.70
2018-05-26T20:22:28.683Z,54.80
2018-05-26T20:24:55.084Z,54.80
2018-05-26T20:27:21.667Z,54.80
2018-05-26T20:29:48.106Z,54.90
2018-05-26T20:32:14.571Z,54.80
2018-05-26T20:34:40.907Z,54.90
2018-05-26T20:37:07.279Z,54.80
2018-05-26T20:39:33.676Z,54.80
2018-05-26T20:42:00.098Z,54.90
2018-05-26T20:44:27.553Z,54.90
2018-05-26T20:46:53.990Z,54.80
2018-05-26T20:49:20.437Z,54.90
2018-05-26T20:51:46.816Z,54.90
2018-05-26T20:54:13.278Z,55.00
2018-05-26T20:56:39.636Z,54.90
2018-05-26T20:59:06.813Z,55.00
2018-05-26T21:01:34.048Z,55.00
2018-05-26T21:04:01.236Z,55.10
2018-05-26T21:06:27.688Z,55.00
2018-05-26T21:08:54.078Z,55.00
2018-05-26T21:11:20.471Z,55.00
2018-05-26T21:13:47.659Z,55.10
2018-05-26T21:16:14.024Z,55.00
2018-05-26T21:18:40.380Z,55.00
2018-05-26T21:21:06.691Z,55.10
2018-05-26T21:23:33.185Z,55.10
2018-05-26T21:28:16.388Z,55.10
2018-05-26T21:30:42.761Z,55.10
2018-05-26T21:33:09.105Z,55.10
2018-05-26T21:35:35.463Z,55.10
2018-05-26T21:38:02.683Z,55.20
2018-05-26T21:40:29.879Z,55.30
2018-05-26T21:42:56.291Z,55.10
2018-05-26T21:45:22.744Z,55.10
2018-05-26T21:47:49.108Z,55.20
2018-05-26T21:50:15.484Z,55.30
2018-05-26T21:52:41.869Z,55.30
2018-05-26T21:55:08.281Z,55.30
2018-05-26T21:57:34.659Z,55.30
2018-05-26T22:00:01.054Z,55.30
2018-05-26T22:02:27.536Z,55.40
2018-05-26T22:04:54.007Z,55.30
2018-05-26T22:07:20.456Z,55.30
2018-05-26T22:09:46.907Z,55.40
2018-05-26T22:12:13.294Z,55.40
2018-05-26T22:14:40.079Z,55.40
2018-05-26T22:17:06.518Z,55.40
2018-05-26T22:19:32.874Z,55.50
2018-05-26T22:21:59.255Z,55.50
2018-05-26T22:24:26.338Z,55.60
2018-05-26T22:26:52.667Z,55.50
2018-05-26T22:29:19.172Z,55.50
2018-05-26T22:31:46.325Z,55.60
2018-05-26T22:34:12.921Z,55.60
2018-05-26T22:36:40.075Z,55.60
2018-05-26T22:39:06.445Z,55.50
2018-05-26T22:41:33.788Z,55.60
2018-05-26T22:44:00.144Z,55.60
2018-05-26T22:46:26.473Z,55.70
2018-05-26T22:48:53.592Z,55.70
2018-05-26T22:51:19.917Z,55.60
2018-05-26T22:53:46.272Z,55.70
2018-05-26T22:56:12.753Z,55.70
2018-05-26T22:58:40.132Z,55.70
2018-05-26T23:01:06.452Z,55.80
2018-05-26T23:03:33.583Z,55.80
2018-05-26T23:06:00.929Z,55.80
2018-05-26T23:08:27.301Z,55.80
2018-05-26T23:10:53.686Z,55.70
2018-05-26T23:13:20.029Z,55.80
2018-05-26T23:15:46.355Z,55.80
2018-05-26T23:18:12.697Z,55.90
2018-05-26T23:20:39.930Z,55.90
2018-05-26T23:23:06.372Z,56.50
2018-05-26T23:25:33.499Z,56.10
2018-05-26T23:27:59.780Z,55.90
2018-05-26T23:30:26.070Z,56.00
2018-05-26T23:32:53.176Z,56.10
2018-05-26T23:35:19.675Z,56.00
2018-05-26T23:37:46.183Z,56.10
2018-05-26T23:40:12.570Z,56.10
2018-05-26T23:42:38.900Z,56.10
2018-05-26T23:45:05.253Z,56.30
2018-05-26T23:47:31.688Z,56.00
2018-05-26T23:49:58.142Z,56.10
2018-05-26T23:52:24.560Z,56.20
2018-05-26T23:54:50.887Z,56.20
2018-05-26T23:57:17.194Z,56.10
2018-05-26T23:59:45.259Z,56.20
